Check out our new PWSWeather beta!
PWSweather.com
Personal Weather Stations
Station Observations

SkegnessGB

Lat: 53.147585, Lon: 0.345774

Elevation: 18

Station Type: Fine Offset WH3080

http://www.skegnessweather.info/

High Low Average
Temperature 49.3°F9.6°C 41.4°F5.2°C 44.7°F7.1°C
Dew Point 43.9°F6.6°C 36.9°F2.7°C 40.4°F4.7°C
Winds 11.2 mph 18.0 kmh 1.4 mph 2.3 kmh 6.0 mph SSW9.7 kmh SSW
Wind Gusts 13.3 mph21.4 kmh 1.7 mph2.7 kmh 7.0 mph11.3 kmh
Humidity 92% 76% 85%
Pressure 29.89 in1012.2 mb 29.55 in1000.7 mb -
Precipitation 0.07 in1.8 mm - -
Hour Temp Dew Point Humidity Winds Wind Gusts Pressure Precip Precip Rate Daily Precip Total
12:00 AM 41.4°F5.2°C 36.9°F2.7°C 84% 5.6 mph SSE9.0 kmh SSE 5.9 mph9.5 kmh 29.75 in1007.5 mb 0.00 in0.0 mm 0.00 in0.0 mm 0.00 in0.0 mm
12:10 AM 41.5°F5.3°C 37.1°F2.8°C 84% 6.3 mph SSE10.1 kmh SSE 13.3 mph21.4 kmh 29.74 in1007.1 mb 0.00 in0.0 mm 0.00 in0.0 mm 0.00 in0.0 mm
12:20 AM 41.7°F5.4°C 37.5°F3.1°C 85% 7.9 mph S12.7 kmh S 7.6 mph12.2 kmh 29.74 in1007.1 mb 0.00 in0.0 mm 0.00 in0.0 mm 0.00 in0.0 mm
12:30 AM 41.9°F5.5°C 38.0°F3.3°C 86% 8.2 mph S13.2 kmh S 8.4 mph13.5 kmh 29.73 in1006.8 mb 0.00 in0.0 mm 0.00 in0.0 mm 0.00 in0.0 mm
12:40 AM 42.1°F5.6°C 38.2°F3.4°C 86% 9.6 mph SSW15.4 kmh SSW 10.8 mph17.4 kmh 29.72 in1006.4 mb 0.00 in0.0 mm 0.00 in0.0 mm 0.00 in0.0 mm
12:50 AM 42.3°F5.7°C 38.4°F3.6°C 86% 8.4 mph SSW13.5 kmh SSW 9.1 mph14.6 kmh 29.73 in1006.8 mb 0.00 in0.0 mm 0.00 in0.0 mm 0.00 in0.0 mm
01:00 AM 42.1°F5.6°C 38.5°F3.6°C 87% 7.7 mph SSW12.4 kmh SSW 7.6 mph12.2 kmh 29.73 in1006.8 mb 0.00 in0.0 mm 0.00 in0.0 mm 0.00 in0.0 mm
01:10 AM 42.3°F5.7°C 38.7°F3.7°C 87% 7.9 mph WSW12.7 kmh WSW 7.6 mph12.2 kmh 29.73 in1006.8 mb 0.00 in0.0 mm 0.00 in0.0 mm 0.00 in0.0 mm
01:20 AM 42.3°F5.7°C 38.7°F3.7°C 87% 7.3 mph S11.7 kmh S 6.6 mph10.6 kmh 29.72 in1006.4 mb 0.00 in0.0 mm 0.00 in0.0 mm 0.00 in0.0 mm
01:30 AM 42.4°F5.8°C 38.8°F3.8°C 87% 7.3 mph S11.7 kmh S 7.6 mph12.2 kmh 29.71 in1006.1 mb 0.00 in0.0 mm 0.00 in0.0 mm 0.00 in0.0 mm
01:40 AM 42.4°F5.8°C 39.1°F3.9°C 88% 6.2 mph SSE10.0 kmh SSE 7.6 mph12.2 kmh 29.72 in1006.4 mb 0.00 in0.0 mm 0.00 in0.0 mm 0.00 in0.0 mm
01:50 AM 42.3°F5.7°C 39.0°F3.9°C 88% 6.6 mph SSW10.6 kmh SSW 7.6 mph12.2 kmh 29.71 in1006.1 mb 0.00 in0.0 mm 0.00 in0.0 mm 0.00 in0.0 mm
02:00 AM 42.3°F5.7°C 39.0°F3.9°C 88% 5.4 mph S8.7 kmh S 4.9 mph7.9 kmh 29.70 in1005.8 mb 0.00 in0.0 mm 0.00 in0.0 mm 0.00 in0.0 mm
02:10 AM 42.3°F5.7°C 39.0°F3.9°C 88% 6.1 mph S9.8 kmh S 7.6 mph12.2 kmh 29.70 in1005.8 mb 0.00 in0.0 mm 0.00 in0.0 mm 0.00 in0.0 mm
02:20 AM 42.3°F5.7°C 39.0°F3.9°C 88% 7.0 mph S11.3 kmh S 6.6 mph10.6 kmh 29.69 in1005.4 mb 0.00 in0.0 mm 0.00 in0.0 mm 0.00 in0.0 mm
02:30 AM 42.3°F5.7°C 39.0°F3.9°C 88% 7.4 mph S11.9 kmh S 8.4 mph13.5 kmh 29.69 in1005.4 mb 0.00 in0.0 mm 0.00 in0.0 mm 0.00 in0.0 mm
02:40 AM 42.4°F5.8°C 39.1°F3.9°C 88% 7.1 mph SSE11.4 kmh SSE 8.4 mph13.5 kmh 29.69 in1005.4 mb 0.00 in0.0 mm 0.00 in0.0 mm 0.00 in0.0 mm
02:50 AM 42.6°F5.9°C 39.3°F4.1°C 88% 7.0 mph S11.3 kmh S 6.6 mph10.6 kmh 29.68 in1005.1 mb 0.00 in0.0 mm 0.00 in0.0 mm 0.00 in0.0 mm
03:00 AM 42.6°F5.9°C 39.6°F4.2°C 89% 7.6 mph S12.2 kmh S 7.6 mph12.2 kmh 29.68 in1005.1 mb 0.00 in0.0 mm 0.00 in0.0 mm 0.00 in0.0 mm
03:10 AM 42.8°F6.0°C 39.8°F4.3°C 89% 8.7 mph SE14.0 kmh SE 12.5 mph20.1 kmh 29.68 in1005.1 mb 0.00 in0.0 mm 0.00 in0.0 mm 0.00 in0.0 mm
03:20 AM 43.0°F6.1°C 40.0°F4.4°C 89% 9.7 mph S15.6 kmh S 12.5 mph20.1 kmh 29.67 in1004.7 mb 0.00 in0.0 mm 0.00 in0.0 mm 0.00 in0.0 mm
03:30 AM 43.0°F6.1°C 40.0°F4.4°C 89% 9.6 mph S15.4 kmh S 10.1 mph16.3 kmh 29.67 in1004.7 mb 0.00 in0.0 mm 0.00 in0.0 mm 0.00 in0.0 mm
03:40 AM 43.0°F6.1°C 40.0°F4.4°C 89% 8.7 mph S14.0 kmh S 9.1 mph14.6 kmh 29.67 in1004.7 mb 0.00 in0.0 mm 0.00 in0.0 mm 0.00 in0.0 mm
03:50 AM 43.0°F6.1°C 40.0°F4.4°C 89% 8.8 mph SSW14.2 kmh SSW 10.1 mph16.3 kmh 29.66 in1004.4 mb 0.00 in0.0 mm 0.00 in0.0 mm 0.00 in0.0 mm
04:00 AM 42.8°F6.0°C 39.8°F4.3°C 89% 9.4 mph SSW15.1 kmh SSW 11.8 mph19.0 kmh 29.65 in1004.1 mb 0.00 in0.0 mm 0.00 in0.0 mm 0.00 in0.0 mm
04:10 AM 42.8°F6.0°C 39.8°F4.3°C 89% 9.0 mph S14.5 kmh S 9.1 mph14.6 kmh 29.65 in1004.1 mb 0.00 in0.0 mm 0.00 in0.0 mm 0.00 in0.0 mm
04:20 AM 42.8°F6.0°C 39.8°F4.3°C 89% 6.7 mph S10.8 kmh S 6.6 mph10.6 kmh 29.65 in1004.1 mb 0.00 in0.0 mm 0.00 in0.0 mm 0.00 in0.0 mm
04:30 AM 42.8°F6.0°C 39.8°F4.3°C 89% 5.5 mph SSW8.9 kmh SSW 6.6 mph10.6 kmh 29.64 in1003.7 mb 0.00 in0.0 mm 0.00 in0.0 mm 0.00 in0.0 mm
04:40 AM 42.8°F6.0°C 39.5°F4.2°C 88% 7.4 mph SSE11.9 kmh SSE 7.6 mph12.2 kmh 29.63 in1003.4 mb 0.01 in0.3 mm 0.06 in1.5 mm 0.01 in0.3 mm
04:50 AM 42.6°F5.9°C 39.3°F4.1°C 88% 7.9 mph SE12.7 kmh SE 7.6 mph12.2 kmh 29.62 in1003.0 mb 0.01 in0.3 mm 0.00 in0.0 mm 0.01 in0.3 mm
05:00 AM 42.6°F5.9°C 39.6°F4.2°C 89% 6.3 mph SSE10.1 kmh SSE 6.6 mph10.6 kmh 29.62 in1003.0 mb 0.01 in0.3 mm 0.00 in0.0 mm 0.01 in0.3 mm
05:10 AM 42.6°F5.9°C 39.6°F4.2°C 89% 6.4 mph SSE10.3 kmh SSE 6.6 mph10.6 kmh 29.62 in1003.0 mb 0.01 in0.3 mm 0.00 in0.0 mm 0.01 in0.3 mm
05:20 AM 42.3°F5.7°C 39.2°F4.0°C 89% 6.3 mph SSE10.1 kmh SSE 5.9 mph9.5 kmh 29.61 in1002.7 mb 0.01 in0.3 mm 0.00 in0.0 mm 0.01 in0.3 mm
05:30 AM 42.1°F5.6°C 39.1°F3.9°C 89% 4.5 mph S7.2 kmh S 4.9 mph7.9 kmh 29.60 in1002.4 mb 0.01 in0.3 mm 0.00 in0.0 mm 0.01 in0.3 mm
05:40 AM 42.1°F5.6°C 39.1°F3.9°C 89% 2.7 mph SE4.3 kmh SE 4.9 mph7.9 kmh 29.60 in1002.4 mb 0.01 in0.3 mm 0.00 in0.0 mm 0.02 in0.5 mm
05:50 AM 41.9°F5.5°C 38.9°F3.8°C 89% 4.6 mph S7.4 kmh S 4.9 mph7.9 kmh 29.59 in1002.0 mb 0.01 in0.3 mm 0.00 in0.0 mm 0.02 in0.5 mm
06:00 AM 41.9°F5.5°C 38.9°F3.8°C 89% 3.4 mph S5.5 kmh S 4.2 mph6.8 kmh 29.59 in1002.0 mb 0.02 in0.5 mm 0.01 in0.3 mm 0.04 in1.0 mm
06:10 AM 42.1°F5.6°C 39.4°F4.1°C 90% 2.5 mph NNW4.0 kmh NNW 4.9 mph7.9 kmh 29.58 in1001.7 mb 0.02 in0.5 mm 0.00 in0.0 mm 0.04 in1.0 mm
06:20 AM 42.3°F5.7°C 39.5°F4.2°C 90% 4.2 mph SE6.8 kmh SE 5.9 mph9.5 kmh 29.58 in1001.7 mb 0.02 in0.5 mm 0.00 in0.0 mm 0.04 in1.0 mm
06:30 AM 42.3°F5.7°C 39.5°F4.2°C 90% 3.5 mph S5.6 kmh S 8.4 mph13.5 kmh 29.58 in1001.7 mb 0.02 in0.5 mm 0.00 in0.0 mm 0.04 in1.0 mm
06:40 AM 42.4°F5.8°C 39.7°F4.3°C 90% 6.0 mph SSE9.7 kmh SSE 9.1 mph14.6 kmh 29.58 in1001.7 mb 0.02 in0.5 mm 0.00 in0.0 mm 0.05 in1.3 mm
06:50 AM 42.4°F5.8°C 39.7°F4.3°C 90% 7.8 mph S12.6 kmh S 7.6 mph12.2 kmh 29.57 in1001.4 mb 0.04 in1.0 mm 0.12 in3.0 mm 0.06 in1.5 mm
07:00 AM 42.4°F5.8°C 39.7°F4.3°C 90% 5.1 mph ESE8.2 kmh ESE 7.6 mph12.2 kmh 29.57 in1001.4 mb 0.02 in0.5 mm 0.00 in0.0 mm 0.06 in1.5 mm
07:10 AM 42.6°F5.9°C 39.9°F4.4°C 90% 11.2 mph S18.0 kmh S 10.1 mph16.3 kmh 29.56 in1001.0 mb 0.02 in0.5 mm 0.00 in0.0 mm 0.06 in1.5 mm
07:20 AM 42.8°F6.0°C 40.1°F4.5°C 90% 7.8 mph SSE12.6 kmh SSE 7.6 mph12.2 kmh 29.56 in1001.0 mb 0.02 in0.5 mm 0.00 in0.0 mm 0.06 in1.5 mm
07:30 AM 43.0°F6.1°C 40.2°F4.6°C 90% 7.5 mph S12.1 kmh S 8.4 mph13.5 kmh 29.55 in1000.7 mb 0.02 in0.5 mm 0.00 in0.0 mm 0.06 in1.5 mm
07:40 AM 43.2°F6.2°C 40.7°F4.8°C 91% 7.4 mph S11.9 kmh S 7.6 mph12.2 kmh 29.55 in1000.7 mb 0.01 in0.3 mm 0.00 in0.0 mm 0.06 in1.5 mm
07:50 AM 43.3°F6.3°C 40.9°F4.9°C 91% 8.1 mph SSE13.0 kmh SSE 9.1 mph14.6 kmh 29.55 in1000.7 mb 0.00 in0.0 mm 0.00 in0.0 mm 0.06 in1.5 mm
08:00 AM 43.5°F6.4°C 41.1°F5.1°C 91% 8.5 mph S13.7 kmh S 7.6 mph12.2 kmh 29.55 in1000.7 mb 0.00 in0.0 mm 0.00 in0.0 mm 0.06 in1.5 mm
08:10 AM 43.5°F6.4°C 41.1°F5.1°C 91% 6.2 mph SSE10.0 kmh SSE 5.9 mph9.5 kmh 29.55 in1000.7 mb 0.00 in0.0 mm 0.00 in0.0 mm 0.06 in1.5 mm
08:20 AM 43.5°F6.4°C 41.1°F5.1°C 91% 6.0 mph S9.7 kmh S 7.6 mph12.2 kmh 29.55 in1000.7 mb 0.00 in0.0 mm 0.00 in0.0 mm 0.06 in1.5 mm
08:30 AM 43.7°F6.5°C 41.2°F5.1°C 91% 6.2 mph SSW10.0 kmh SSW 6.6 mph10.6 kmh 29.55 in1000.7 mb 0.00 in0.0 mm 0.00 in0.0 mm 0.06 in1.5 mm
08:40 AM 43.7°F6.5°C 41.2°F5.1°C 91% 5.4 mph SW8.7 kmh SW 6.6 mph10.6 kmh 29.55 in1000.7 mb 0.00 in0.0 mm 0.00 in0.0 mm 0.06 in1.5 mm
08:50 AM 43.7°F6.5°C 41.2°F5.1°C 91% 6.0 mph SSW9.7 kmh SSW 10.1 mph16.3 kmh 29.55 in1000.7 mb 0.00 in0.0 mm 0.00 in0.0 mm 0.06 in1.5 mm
09:00 AM 43.9°F6.6°C 41.4°F5.2°C 91% 6.9 mph SW11.1 kmh SW 10.1 mph16.3 kmh 29.55 in1000.7 mb 0.00 in0.0 mm 0.00 in0.0 mm 0.06 in1.5 mm
09:10 AM 43.9°F6.6°C 41.4°F5.2°C 91% 7.8 mph SW12.6 kmh SW 10.8 mph17.4 kmh 29.55 in1000.7 mb 0.00 in0.0 mm 0.00 in0.0 mm 0.06 in1.5 mm
09:20 AM 43.9°F6.6°C 41.4°F5.2°C 91% 7.3 mph SSW11.7 kmh SSW 10.8 mph17.4 kmh 29.56 in1001.0 mb 0.00 in0.0 mm 0.00 in0.0 mm 0.06 in1.5 mm
09:30 AM 44.1°F6.7°C 41.9°F5.5°C 92% 6.3 mph WSW10.1 kmh WSW 6.6 mph10.6 kmh 29.56 in1001.0 mb 0.00 in0.0 mm 0.00 in0.0 mm 0.06 in1.5 mm
09:40 AM 44.2°F6.8°C 42.1°F5.6°C 92% 5.9 mph SSW9.5 kmh SSW 9.1 mph14.6 kmh 29.57 in1001.4 mb 0.00 in0.0 mm 0.00 in0.0 mm 0.06 in1.5 mm
09:50 AM 44.2°F6.8°C 42.1°F5.6°C 92% 5.2 mph S8.4 kmh S 5.9 mph9.5 kmh 29.57 in1001.4 mb 0.00 in0.0 mm 0.00 in0.0 mm 0.06 in1.5 mm
10:00 AM 44.2°F6.8°C 42.1°F5.6°C 92% 4.4 mph SW7.1 kmh SW 4.9 mph7.9 kmh 29.57 in1001.4 mb 0.00 in0.0 mm 0.00 in0.0 mm 0.06 in1.5 mm
10:10 AM 44.4°F6.9°C 42.2°F5.7°C 92% 4.5 mph SSW7.2 kmh SSW 4.2 mph6.8 kmh 29.57 in1001.4 mb 0.00 in0.0 mm 0.00 in0.0 mm 0.06 in1.5 mm
10:20 AM 44.4°F6.9°C 42.2°F5.7°C 92% 3.7 mph SW6.0 kmh SW 4.9 mph7.9 kmh 29.57 in1001.4 mb 0.00 in0.0 mm 0.00 in0.0 mm 0.06 in1.5 mm
10:30 AM 44.4°F6.9°C 42.2°F5.7°C 92% 5.0 mph SSW8.0 kmh SSW 5.9 mph9.5 kmh 29.58 in1001.7 mb 0.00 in0.0 mm 0.00 in0.0 mm 0.06 in1.5 mm
10:40 AM 44.6°F7.0°C 41.3°F5.2°C 88% 5.8 mph SSW9.3 kmh SSW 6.6 mph10.6 kmh 29.58 in1001.7 mb 0.00 in0.0 mm 0.00 in0.0 mm 0.06 in1.5 mm
10:50 AM 45.1°F7.3°C 41.8°F5.4°C 88% 6.2 mph SW10.0 kmh SW 6.6 mph10.6 kmh 29.57 in1001.4 mb 0.00 in0.0 mm 0.00 in0.0 mm 0.06 in1.5 mm
11:00 AM 45.5°F7.5°C 42.2°F5.7°C 88% 6.4 mph SW10.3 kmh SW 9.1 mph14.6 kmh 29.58 in1001.7 mb 0.00 in0.0 mm 0.00 in0.0 mm 0.06 in1.5 mm
11:10 AM 45.9°F7.7°C 42.5°F5.8°C 88% 7.7 mph S12.4 kmh S 7.6 mph12.2 kmh 29.58 in1001.7 mb 0.00 in0.0 mm 0.00 in0.0 mm 0.06 in1.5 mm
11:20 AM 46.4°F8.0°C 43.0°F6.1°C 88% 7.5 mph S12.1 kmh S 7.6 mph12.2 kmh 29.58 in1001.7 mb 0.00 in0.0 mm 0.00 in0.0 mm 0.06 in1.5 mm
11:30 AM 46.6°F8.1°C 43.2°F6.2°C 88% 7.9 mph S12.7 kmh S 9.1 mph14.6 kmh 29.58 in1001.7 mb 0.00 in0.0 mm 0.00 in0.0 mm 0.06 in1.5 mm
11:40 AM 46.9°F8.3°C 43.6°F6.4°C 88% 8.4 mph SW13.5 kmh SW 10.8 mph17.4 kmh 29.59 in1002.0 mb 0.00 in0.0 mm 0.00 in0.0 mm 0.06 in1.5 mm
11:50 AM 47.1°F8.4°C 43.4°F6.3°C 87% 8.6 mph S13.8 kmh S 10.8 mph17.4 kmh 29.59 in1002.0 mb 0.00 in0.0 mm 0.00 in0.0 mm 0.06 in1.5 mm
12:00 PM 47.3°F8.5°C 43.6°F6.4°C 87% 8.5 mph SSW13.7 kmh SSW 10.8 mph17.4 kmh 29.59 in1002.0 mb 0.00 in0.0 mm 0.00 in0.0 mm 0.06 in1.5 mm
12:10 PM 47.5°F8.6°C 43.5°F6.4°C 86% 8.2 mph SW13.2 kmh SW 10.8 mph17.4 kmh 29.59 in1002.0 mb 0.00 in0.0 mm 0.00 in0.0 mm 0.06 in1.5 mm
12:20 PM 47.8°F8.8°C 43.9°F6.6°C 86% 8.0 mph WSW12.9 kmh WSW 9.1 mph14.6 kmh 29.60 in1002.4 mb 0.00 in0.0 mm 0.00 in0.0 mm 0.06 in1.5 mm
12:30 PM 47.8°F8.8°C 43.5°F6.4°C 85% 6.8 mph WSW10.9 kmh WSW 6.6 mph10.6 kmh 29.59 in1002.0 mb 0.00 in0.0 mm 0.00 in0.0 mm 0.06 in1.5 mm
12:40 PM 48.0°F8.9°C 43.4°F6.3°C 84% 8.5 mph SW13.7 kmh SW 9.1 mph14.6 kmh 29.59 in1002.0 mb 0.00 in0.0 mm 0.00 in0.0 mm 0.06 in1.5 mm
12:50 PM 48.2°F9.0°C 43.3°F6.3°C 83% 8.8 mph SSW14.2 kmh SSW 10.1 mph16.3 kmh 29.59 in1002.0 mb 0.00 in0.0 mm 0.00 in0.0 mm 0.06 in1.5 mm
01:00 PM 48.2°F9.0°C 43.0°F6.1°C 82% 7.6 mph WSW12.2 kmh WSW 9.1 mph14.6 kmh 29.59 in1002.0 mb 0.00 in0.0 mm 0.00 in0.0 mm 0.06 in1.5 mm
01:10 PM 48.2°F9.0°C 43.0°F6.1°C 82% 7.4 mph SSE11.9 kmh SSE 6.6 mph10.6 kmh 29.60 in1002.4 mb 0.00 in0.0 mm 0.00 in0.0 mm 0.06 in1.5 mm
01:20 PM 48.4°F9.1°C 42.8°F6.0°C 81% 7.6 mph SW12.2 kmh SW 8.4 mph13.5 kmh 29.60 in1002.4 mb 0.00 in0.0 mm 0.00 in0.0 mm 0.06 in1.5 mm
01:30 PM 48.4°F9.1°C 42.8°F6.0°C 81% 5.9 mph WSW9.5 kmh WSW 6.6 mph10.6 kmh 29.60 in1002.4 mb 0.00 in0.0 mm 0.00 in0.0 mm 0.06 in1.5 mm
01:40 PM 48.6°F9.2°C 43.0°F6.1°C 81% 5.9 mph S9.5 kmh S 6.6 mph10.6 kmh 29.61 in1002.7 mb 0.00 in0.0 mm 0.00 in0.0 mm 0.06 in1.5 mm
01:50 PM 48.9°F9.4°C 43.3°F6.3°C 81% 7.2 mph SSW11.6 kmh SSW 9.1 mph14.6 kmh 29.61 in1002.7 mb 0.00 in0.0 mm 0.00 in0.0 mm 0.06 in1.5 mm
02:00 PM 49.3°F9.6°C 43.7°F6.5°C 81% 6.0 mph WSW9.7 kmh WSW 8.4 mph13.5 kmh 29.62 in1003.0 mb 0.00 in0.0 mm 0.00 in0.0 mm 0.06 in1.5 mm
02:10 PM 49.3°F9.6°C 43.4°F6.3°C 80% 4.4 mph SSW7.1 kmh SSW 5.9 mph9.5 kmh 29.62 in1003.0 mb 0.00 in0.0 mm 0.00 in0.0 mm 0.06 in1.5 mm
02:20 PM 49.3°F9.6°C 43.4°F6.3°C 80% 6.1 mph SW9.8 kmh SW 5.9 mph9.5 kmh 29.62 in1003.0 mb 0.00 in0.0 mm 0.00 in0.0 mm 0.06 in1.5 mm
02:30 PM 49.1°F9.5°C 42.9°F6.1°C 79% 6.4 mph SW10.3 kmh SW 7.6 mph12.2 kmh 29.62 in1003.0 mb 0.00 in0.0 mm 0.00 in0.0 mm 0.06 in1.5 mm
02:40 PM 49.1°F9.5°C 42.5°F5.8°C 78% 7.5 mph SW12.1 kmh SW 9.1 mph14.6 kmh 29.63 in1003.4 mb 0.00 in0.0 mm 0.00 in0.0 mm 0.06 in1.5 mm
02:50 PM 48.7°F9.3°C 41.8°F5.4°C 77% 7.0 mph WSW11.3 kmh WSW 8.4 mph13.5 kmh 29.63 in1003.4 mb 0.00 in0.0 mm 0.00 in0.0 mm 0.06 in1.5 mm
03:00 PM 48.4°F9.1°C 41.5°F5.3°C 77% 6.9 mph S11.1 kmh S 7.6 mph12.2 kmh 29.63 in1003.4 mb 0.00 in0.0 mm 0.00 in0.0 mm 0.06 in1.5 mm
03:10 PM 48.0°F8.9°C 41.2°F5.1°C 77% 6.1 mph ESE9.8 kmh ESE 7.6 mph12.2 kmh 29.63 in1003.4 mb 0.00 in0.0 mm 0.00 in0.0 mm 0.06 in1.5 mm
03:20 PM 47.7°F8.7°C 40.8°F4.9°C 77% 5.1 mph S8.2 kmh S 5.9 mph9.5 kmh 29.63 in1003.4 mb 0.00 in0.0 mm 0.00 in0.0 mm 0.06 in1.5 mm
03:30 PM 47.3°F8.5°C 40.5°F4.7°C 77% 5.3 mph SW8.5 kmh SW 6.6 mph10.6 kmh 29.65 in1004.1 mb 0.00 in0.0 mm 0.00 in0.0 mm 0.06 in1.5 mm
03:40 PM 47.3°F8.5°C 40.8°F4.9°C 78% 3.8 mph S6.1 kmh S 4.2 mph6.8 kmh 29.64 in1003.7 mb 0.00 in0.0 mm 0.00 in0.0 mm 0.06 in1.5 mm
03:50 PM 47.1°F8.4°C 40.9°F4.9°C 79% 4.2 mph NW6.8 kmh NW 4.9 mph7.9 kmh 29.64 in1003.7 mb 0.00 in0.0 mm 0.00 in0.0 mm 0.06 in1.5 mm
04:00 PM 47.1°F8.4°C 40.9°F4.9°C 79% 5.1 mph WSW8.2 kmh WSW 5.9 mph9.5 kmh 29.65 in1004.1 mb 0.00 in0.0 mm 0.00 in0.0 mm 0.06 in1.5 mm
04:10 PM 47.1°F8.4°C 41.3°F5.2°C 80% 5.1 mph S8.2 kmh S 6.6 mph10.6 kmh 29.65 in1004.1 mb 0.00 in0.0 mm 0.00 in0.0 mm 0.06 in1.5 mm
04:20 PM 46.9°F8.3°C 41.1°F5.1°C 80% 5.1 mph S8.2 kmh S 5.9 mph9.5 kmh 29.66 in1004.4 mb 0.00 in0.0 mm 0.00 in0.0 mm 0.06 in1.5 mm
04:30 PM 46.6°F8.1°C 40.7°F4.8°C 80% 4.7 mph SW7.6 kmh SW 4.2 mph6.8 kmh 29.66 in1004.4 mb 0.00 in0.0 mm 0.00 in0.0 mm 0.06 in1.5 mm
04:40 PM 46.4°F8.0°C 40.6°F4.8°C 80% 3.7 mph W6.0 kmh W 4.2 mph6.8 kmh 29.66 in1004.4 mb 0.00 in0.0 mm 0.00 in0.0 mm 0.06 in1.5 mm
04:50 PM 46.0°F7.8°C 40.2°F4.6°C 80% 3.0 mph WSW4.8 kmh WSW 4.9 mph7.9 kmh 29.67 in1004.7 mb 0.00 in0.0 mm 0.00 in0.0 mm 0.06 in1.5 mm
05:00 PM 46.0°F7.8°C 40.5°F4.7°C 81% 1.9 mph SSW3.1 kmh SSW 3.4 mph5.5 kmh 29.68 in1005.1 mb 0.00 in0.0 mm 0.00 in0.0 mm 0.06 in1.5 mm
05:10 PM 45.9°F7.7°C 40.4°F4.7°C 81% 1.4 mph E2.3 kmh E 1.7 mph2.7 kmh 29.68 in1005.1 mb 0.00 in0.0 mm 0.00 in0.0 mm 0.06 in1.5 mm
05:20 PM 45.9°F7.7°C 40.4°F4.7°C 81% 2.2 mph SW3.5 kmh SW 3.4 mph5.5 kmh 29.68 in1005.1 mb 0.01 in0.3 mm 0.06 in1.5 mm 0.07 in1.8 mm
05:30 PM 45.7°F7.6°C 40.2°F4.6°C 81% 3.7 mph WNW6.0 kmh WNW 4.9 mph7.9 kmh 29.69 in1005.4 mb 0.01 in0.3 mm 0.00 in0.0 mm 0.07 in1.8 mm
05:40 PM 45.9°F7.7°C 40.7°F4.8°C 82% 4.0 mph W6.4 kmh W 4.9 mph7.9 kmh 29.70 in1005.8 mb 0.01 in0.3 mm 0.00 in0.0 mm 0.07 in1.8 mm
05:50 PM 45.7°F7.6°C 40.5°F4.7°C 82% 3.2 mph SSW5.1 kmh SSW 3.4 mph5.5 kmh 29.69 in1005.4 mb 0.01 in0.3 mm 0.00 in0.0 mm 0.07 in1.8 mm
06:00 PM 45.3°F7.4°C 40.1°F4.5°C 82% 3.0 mph SSW4.8 kmh SSW 4.2 mph6.8 kmh 29.70 in1005.8 mb 0.01 in0.3 mm 0.00 in0.0 mm 0.07 in1.8 mm
06:10 PM 45.0°F7.2°C 39.8°F4.3°C 82% 2.7 mph WSW4.3 kmh WSW 4.2 mph6.8 kmh 29.71 in1006.1 mb 0.01 in0.3 mm 0.00 in0.0 mm 0.07 in1.8 mm
06:20 PM 44.6°F7.0°C 39.4°F4.1°C 82% 4.5 mph WSW7.2 kmh WSW 7.6 mph12.2 kmh 29.70 in1005.8 mb 0.00 in0.0 mm 0.00 in0.0 mm 0.07 in1.8 mm
06:30 PM 44.4°F6.9°C 40.8°F4.9°C 87% 3.7 mph SW6.0 kmh SW 4.2 mph6.8 kmh 29.71 in1006.1 mb 0.00 in0.0 mm 0.00 in0.0 mm 0.07 in1.8 mm
06:40 PM 44.4°F6.9°C 40.8°F4.9°C 87% 1.8 mph S2.9 kmh S 3.4 mph5.5 kmh 29.72 in1006.4 mb 0.00 in0.0 mm 0.00 in0.0 mm 0.07 in1.8 mm
06:50 PM 44.4°F6.9°C 40.8°F4.9°C 87% 2.2 mph SW3.5 kmh SW 4.2 mph6.8 kmh 29.73 in1006.8 mb 0.00 in0.0 mm 0.00 in0.0 mm 0.07 in1.8 mm
07:00 PM 44.8°F7.1°C 39.6°F4.2°C 82% 3.8 mph SW6.1 kmh SW 4.2 mph6.8 kmh 29.72 in1006.4 mb 0.00 in0.0 mm 0.00 in0.0 mm 0.07 in1.8 mm
07:10 PM 44.8°F7.1°C 39.6°F4.2°C 82% 3.0 mph SSW4.8 kmh SSW 3.4 mph5.5 kmh 29.73 in1006.8 mb 0.00 in0.0 mm 0.00 in0.0 mm 0.07 in1.8 mm
07:20 PM 45.0°F7.2°C 39.8°F4.3°C 82% 3.2 mph SW5.1 kmh SW 4.9 mph7.9 kmh 29.74 in1007.1 mb 0.00 in0.0 mm 0.00 in0.0 mm 0.07 in1.8 mm
07:30 PM 45.0°F7.2°C 39.8°F4.3°C 82% 5.2 mph WSW8.4 kmh WSW 5.9 mph9.5 kmh 29.74 in1007.1 mb 0.00 in0.0 mm 0.00 in0.0 mm 0.07 in1.8 mm
07:40 PM 45.3°F7.4°C 40.1°F4.5°C 82% 6.9 mph SW11.1 kmh SW 8.4 mph13.5 kmh 29.74 in1007.1 mb 0.00 in0.0 mm 0.00 in0.0 mm 0.07 in1.8 mm
07:50 PM 45.7°F7.6°C 40.5°F4.7°C 82% 7.6 mph SW12.2 kmh SW 10.8 mph17.4 kmh 29.74 in1007.1 mb 0.00 in0.0 mm 0.00 in0.0 mm 0.07 in1.8 mm
08:00 PM 45.7°F7.6°C 40.2°F4.6°C 81% 6.5 mph SW10.5 kmh SW 7.6 mph12.2 kmh 29.75 in1007.5 mb 0.00 in0.0 mm 0.00 in0.0 mm 0.07 in1.8 mm
08:10 PM 45.7°F7.6°C 40.2°F4.6°C 81% 6.1 mph SW9.8 kmh SW 7.6 mph12.2 kmh 29.76 in1007.8 mb 0.00 in0.0 mm 0.00 in0.0 mm 0.07 in1.8 mm
08:20 PM 45.7°F7.6°C 39.9°F4.4°C 80% 6.7 mph S10.8 kmh S 7.6 mph12.2 kmh 29.77 in1008.1 mb 0.00 in0.0 mm 0.00 in0.0 mm 0.07 in1.8 mm
08:30 PM 45.9°F7.7°C 39.7°F4.3°C 79% 6.8 mph SW10.9 kmh SW 8.4 mph13.5 kmh 29.76 in1007.8 mb 0.00 in0.0 mm 0.00 in0.0 mm 0.07 in1.8 mm
08:40 PM 45.9°F7.7°C 39.4°F4.1°C 78% 8.2 mph SW13.2 kmh SW 12.5 mph20.1 kmh 29.77 in1008.1 mb 0.00 in0.0 mm 0.00 in0.0 mm 0.07 in1.8 mm
08:50 PM 45.7°F7.6°C 38.9°F3.8°C 77% 7.0 mph S11.3 kmh S 7.6 mph12.2 kmh 29.78 in1008.5 mb 0.00 in0.0 mm 0.00 in0.0 mm 0.07 in1.8 mm
09:00 PM 45.7°F7.6°C 38.9°F3.8°C 77% 5.8 mph WSW9.3 kmh WSW 9.1 mph14.6 kmh 29.80 in1009.1 mb 0.00 in0.0 mm 0.00 in0.0 mm 0.07 in1.8 mm
09:10 PM 45.7°F7.6°C 38.5°F3.6°C 76% 6.1 mph SW9.8 kmh SW 6.6 mph10.6 kmh 29.79 in1008.8 mb 0.00 in0.0 mm 0.00 in0.0 mm 0.07 in1.8 mm
09:20 PM 45.7°F7.6°C 38.5°F3.6°C 76% 5.6 mph NNW9.0 kmh NNW 8.4 mph13.5 kmh 29.80 in1009.1 mb 0.00 in0.0 mm 0.00 in0.0 mm 0.07 in1.8 mm
09:30 PM 45.5°F7.5°C 38.4°F3.6°C 76% 6.2 mph ESE10.0 kmh ESE 6.6 mph10.6 kmh 29.80 in1009.1 mb 0.00 in0.0 mm 0.00 in0.0 mm 0.07 in1.8 mm
09:40 PM 45.1°F7.3°C 38.4°F3.6°C 77% 5.3 mph SSW8.5 kmh SSW 7.6 mph12.2 kmh 29.81 in1009.5 mb 0.00 in0.0 mm 0.00 in0.0 mm 0.07 in1.8 mm
09:50 PM 44.8°F7.1°C 38.0°F3.3°C 77% 6.7 mph S10.8 kmh S 9.1 mph14.6 kmh 29.82 in1009.8 mb 0.00 in0.0 mm 0.00 in0.0 mm 0.07 in1.8 mm
10:00 PM 44.4°F6.9°C 39.3°F4.1°C 82% 6.2 mph S10.0 kmh S 7.6 mph12.2 kmh 29.83 in1010.2 mb 0.00 in0.0 mm 0.00 in0.0 mm 0.07 in1.8 mm
10:10 PM 44.2°F6.8°C 39.1°F3.9°C 82% 4.6 mph WNW7.4 kmh WNW 4.9 mph7.9 kmh 29.83 in1010.2 mb 0.00 in0.0 mm 0.00 in0.0 mm 0.07 in1.8 mm
10:20 PM 43.9°F6.6°C 38.7°F3.7°C 82% 5.7 mph SW9.2 kmh SW 8.4 mph13.5 kmh 29.84 in1010.5 mb 0.00 in0.0 mm 0.00 in0.0 mm 0.07 in1.8 mm
10:30 PM 43.7°F6.5°C 38.9°F3.8°C 83% 5.4 mph SW8.7 kmh SW 8.4 mph13.5 kmh 29.84 in1010.5 mb 0.00 in0.0 mm 0.00 in0.0 mm 0.07 in1.8 mm
10:40 PM 43.5°F6.4°C 38.7°F3.7°C 83% 5.0 mph S8.0 kmh S 8.4 mph13.5 kmh 29.85 in1010.8 mb 0.00 in0.0 mm 0.00 in0.0 mm 0.07 in1.8 mm
10:50 PM 43.7°F6.5°C 38.9°F3.8°C 83% 5.1 mph S8.2 kmh S 6.6 mph10.6 kmh 29.86 in1011.2 mb 0.00 in0.0 mm 0.00 in0.0 mm 0.07 in1.8 mm
11:00 PM 43.9°F6.6°C 39.4°F4.1°C 84% 5.9 mph SW9.5 kmh SW 9.1 mph14.6 kmh 29.87 in1011.5 mb 0.00 in0.0 mm 0.00 in0.0 mm 0.07 in1.8 mm
11:10 PM 44.2°F6.8°C 39.7°F4.3°C 84% 7.0 mph N11.3 kmh N 8.4 mph13.5 kmh 29.87 in1011.5 mb 0.00 in0.0 mm 0.00 in0.0 mm 0.07 in1.8 mm
11:20 PM 44.2°F6.8°C 39.4°F4.1°C 83% 6.8 mph NNW10.9 kmh NNW 8.4 mph13.5 kmh 29.88 in1011.9 mb 0.00 in0.0 mm 0.00 in0.0 mm 0.07 in1.8 mm
11:30 PM 44.2°F6.8°C 39.4°F4.1°C 83% 5.2 mph S8.4 kmh S 6.6 mph10.6 kmh 29.88 in1011.9 mb 0.00 in0.0 mm 0.00 in0.0 mm 0.07 in1.8 mm
11:40 PM 44.1°F6.7°C 38.9°F3.8°C 82% 5.7 mph SW9.2 kmh SW 7.6 mph12.2 kmh 29.89 in1012.2 mb 0.00 in0.0 mm 0.00 in0.0 mm 0.07 in1.8 mm
11:50 PM 44.1°F6.7°C 38.9°F3.8°C 82% 4.7 mph WSW7.6 kmh WSW 4.9 mph7.9 kmh 29.89 in1012.2 mb 0.00 in0.0 mm 0.00 in0.0 mm 0.07 in1.8 mm